Terminal Aerodrome Forecast
Issued by NWS Charleston, WV

Current Version | Previous Version | Graphics & Text | Print | Product List | Glossary On
Versions: 1 2 3 4 5 6 7 8 9 10 11 12 13 14 15 16 17 18 19 20 21
613
FTUS41 KRLX 240911 AAA
TAFHTS
TAF AMD
KHTS 240911Z 2409/2506 VRB03KT P6SM FEW015 OVC025
     FM241400 14004KT 6SM SHRA OVC015
     FM241600 15004KT P6SM SHRA OVC020
     FM242000 11004KT 3SM SHRA OVC020=

USA.gov is the U.S. government's official web portal to all federal, state and local government web resources and services.